Time;durP1;ratioP1;P1;durP2;ratioP2;P2;SDS_P1;SDS_P2;PMS_P1;PMS_P2;Temp;Humidity;BMP_temperature;BMP_pressure;BME280_temperature;BME280_humidity;BME280_pressure;Samples;Min_cycle;Max_cycle;Signal;HPM_P1;HPM_P2
2023/03/06 00:00:06;;;;;;;11.50;7.70;;;;;;;;;;5047952;28;20174;-75
2023/03/06 00:02:38;;;;;;;11.20;7.33;;;;;;;;;;5046236;28;20201;-74
2023/03/06 00:05:04;;;;;;;10.27;6.87;;;;;;;;;;5046099;28;20657;-75
2023/03/06 00:07:30;;;;;;;12.70;8.13;;;;;;;;;;5040829;28;20190;-75
2023/03/06 00:09:56;;;;;;;14.07;7.97;;;;;;;;;;5045864;28;20723;-75
2023/03/06 00:12:22;;;;;;;12.63;7.53;;;;;;;;;;5047227;28;20266;-74
2023/03/06 00:14:48;;;;;;;12.10;8.40;;;;;;;;;;5049015;28;20184;-74
2023/03/06 00:17:15;;;;;;;12.97;8.23;;;;;;;;;;5047936;28;20184;-75
2023/03/06 00:19:41;;;;;;;13.33;9.13;;;;;;;;;;5047924;28;20599;-74
2023/03/06 00:22:07;;;;;;;25.80;12.30;;;;;;;;;;5041032;28;20201;-74
2023/03/06 00:24:34;;;;;;;44.80;19.17;;;;;;;;;;5042993;28;20189;-74
2023/03/06 00:27:00;;;;;;;50.70;23.13;;;;;;;;;;5042971;28;20178;-74
2023/03/06 00:29:26;;;;;;;54.03;24.43;;;;;;;;;;5060105;28;20570;-74
2023/03/06 00:31:52;;;;;;;36.60;18.17;;;;;;;;;;5044975;28;20202;-75
2023/03/06 00:34:18;;;;;;;19.73;12.83;;;;;;;;;;5022346;28;20277;-73
2023/03/06 00:36:45;;;;;;;17.87;9.97;;;;;;;;;;5043190;28;20206;-74
2023/03/06 00:39:12;;;;;;;15.73;9.63;;;;;;;;;;5058195;28;20204;-75
2023/03/06 00:41:38;;;;;;;29.77;16.63;;;;;;;;;;5042376;28;20668;-75
2023/03/06 00:44:04;;;;;;;19.97;12.00;;;;;;;;;;5041836;28;20185;-75
2023/03/06 00:46:31;;;;;;;19.37;12.23;;;;;;;;;;5043550;28;20194;-75
2023/03/06 00:48:57;;;;;;;14.60;10.13;;;;;;;;;;5045822;28;20182;-75
2023/03/06 00:51:23;;;;;;;14.97;10.00;;;;;;;;;;5044973;28;20197;-75
2023/03/06 00:53:49;;;;;;;15.40;10.17;;;;;;;;;;5045927;28;20178;-75
2023/03/06 00:56:15;;;;;;;12.90;9.27;;;;;;;;;;5028050;28;20205;-74
2023/03/06 00:58:42;;;;;;;18.13;11.70;;;;;;;;;;5048630;28;20786;-75
2023/03/06 01:01:08;;;;;;;15.20;10.67;;;;;;;;;;5047305;28;20264;-75
2023/03/06 01:03:35;;;;;;;13.87;10.23;;;;;;;;;;5044603;28;20200;-75
2023/03/06 01:06:01;;;;;;;16.07;10.43;;;;;;;;;;5047281;28;20186;-74
2023/03/06 01:08:27;;;;;;;15.47;9.87;;;;;;;;;;5048439;28;20213;-73
2023/03/06 01:10:55;;;;;;;16.50;10.73;;;;;;;;;;5046164;28;20201;-74
2023/03/06 01:13:22;;;;;;;16.90;11.30;;;;;;;;;;5043212;28;20278;-74
2023/03/06 01:15:49;;;;;;;15.47;10.27;;;;;;;;;;5043144;28;20220;-75
2023/03/06 01:18:15;;;;;;;17.53;11.33;;;;;;;;;;5040406;28;20646;-74
2023/03/06 01:20:42;;;;;;;14.67;10.80;;;;;;;;;;5024896;28;20543;-74
2023/03/06 01:23:08;;;;;;;14.27;9.90;;;;;;;;;;5039242;28;20203;-75
2023/03/06 01:25:34;;;;;;;18.33;10.80;;;;;;;;;;5042883;28;20192;-75
2023/03/06 01:28:04;;;;;;;14.13;10.07;;;;;;;;;;5042621;28;20182;-75
2023/03/06 01:30:30;;;;;;;16.67;10.00;;;;;;;;;;5044195;28;20186;-75
2023/03/06 01:32:56;;;;;;;16.00;10.57;;;;;;;;;;5040089;28;20209;-75
2023/03/06 01:35:22;;;;;;;16.30;11.13;;;;;;;;;;5043750;28;20210;-74
2023/03/06 01:37:49;;;;;;;17.17;11.50;;;;;;;;;;5037577;28;20195;-75
2023/03/06 01:40:16;;;;;;;17.70;11.77;;;;;;;;;;5044680;28;20181;-74
2023/03/06 01:42:43;;;;;;;19.23;11.57;;;;;;;;;;5050917;28;20744;-75
2023/03/06 01:45:13;;;;;;;20.23;12.63;;;;;;;;;;5049116;28;20518;-75
2023/03/06 01:47:39;;;;;;;22.67;12.83;;;;;;;;;;5047234;28;20559;-74
2023/03/06 01:50:07;;;;;;;20.67;12.93;;;;;;;;;;5047589;28;20269;-74
2023/03/06 01:52:39;;;;;;;16.80;11.00;;;;;;;;;;5054761;28;20912;-75
2023/03/06 01:55:09;;;;;;;13.30;9.43;;;;;;;;;;5039779;28;20217;-74
2023/03/06 01:57:38;;;;;;;15.53;9.93;;;;;;;;;;5027758;28;20846;-78
2023/03/06 02:00:07;;;;;;;15.67;10.07;;;;;;;;;;5040130;28;20189;-77
2023/03/06 02:02:39;;;;;;;19.37;11.70;;;;;;;;;;5038859;28;20201;-75
2023/03/06 02:05:07;;;;;;;21.50;12.30;;;;;;;;;;5033327;28;20186;-75
2023/03/06 02:07:34;;;;;;;16.83;11.07;;;;;;;;;;5048444;28;20178;-75
2023/03/06 02:10:00;;;;;;;19.20;11.70;;;;;;;;;;5047602;28;20209;-75
2023/03/06 02:12:26;;;;;;;15.37;10.40;;;;;;;;;;5032673;28;20206;-75
2023/03/06 02:14:53;;;;;;;18.73;11.33;;;;;;;;;;5050226;28;20833;-75
2023/03/06 02:17:20;;;;;;;16.37;11.33;;;;;;;;;;5032695;28;20658;-75
2023/03/06 02:20:02;;;;;;;15.27;10.87;;;;;;;;;;5050444;28;20208;-75
2023/03/06 02:22:35;;;;;;;16.63;11.70;;;;;;;;;;5046990;28;20224;-75
2023/03/06 02:25:09;;;;;;;16.93;10.80;;;;;;;;;;5050891;28;20182;-75
2023/03/06 02:27:35;;;;;;;19.07;10.80;;;;;;;;;;5048740;28;20191;-75
2023/03/06 02:30:05;;;;;;;19.63;11.60;;;;;;;;;;5051746;28;20191;-75
2023/03/06 02:32:31;;;;;;;16.77;10.23;;;;;;;;;;5040739;28;20293;-75
2023/03/06 02:34:57;;;;;;;24.03;13.07;;;;;;;;;;5049664;28;20272;-75
2023/03/06 02:37:25;;;;;;;18.30;11.20;;;;;;;;;;5049115;28;20178;-76
2023/03/06 02:39:58;;;;;;;19.57;11.23;;;;;;;;;;5049376;28;20185;-75
2023/03/06 02:42:25;;;;;;;18.33;11.40;;;;;;;;;;5048540;28;20284;-76
2023/03/06 02:44:53;;;;;;;17.83;10.80;;;;;;;;;;5047420;28;20239;-76
2023/03/06 02:47:19;;;;;;;19.53;12.30;;;;;;;;;;5048205;28;20178;-75
2023/03/06 02:49:45;;;;;;;41.10;18.97;;;;;;;;;;5050766;28;20189;-75
2023/03/06 02:52:11;;;;;;;26.90;14.67;;;;;;;;;;5051502;28;20340;-75
2023/03/06 02:54:38;;;;;;;21.73;12.33;;;;;;;;;;5032005;28;20682;-75
2023/03/06 02:57:06;;;;;;;17.63;10.93;;;;;;;;;;5049789;28;20205;-75
2023/03/06 02:59:33;;;;;;;17.07;10.37;;;;;;;;;;5050346;28;20683;-75
2023/03/06 03:02:01;;;;;;;17.23;10.97;;;;;;;;;;5047008;28;20213;-75
2023/03/06 03:04:27;;;;;;;16.83;10.87;;;;;;;;;;5046162;28;20228;-75
2023/03/06 03:06:53;;;;;;;18.83;11.90;;;;;;;;;;5033219;28;20193;-75
2023/03/06 03:09:19;;;;;;;17.87;11.00;;;;;;;;;;5030981;28;20432;-75
2023/03/06 03:11:45;;;;;;;16.63;10.77;;;;;;;;;;5049981;28;20225;-75
2023/03/06 03:14:12;;;;;;;16.60;11.03;;;;;;;;;;5048775;28;20232;-75
2023/03/06 03:16:38;;;;;;;16.50;10.20;;;;;;;;;;5049288;28;20619;-75
2023/03/06 03:19:04;;;;;;;17.87;11.20;;;;;;;;;;5048371;28;20227;-76
2023/03/06 03:21:32;;;;;;;19.50;11.97;;;;;;;;;;5049246;28;20205;-75
2023/03/06 03:23:58;;;;;;;18.27;11.23;;;;;;;;;;5033070;28;20248;-75
2023/03/06 03:26:27;;;;;;;15.13;10.57;;;;;;;;;;5040495;28;20185;-75
2023/03/06 03:29:03;;;;;;;16.30;9.90;;;;;;;;;;5049040;28;20795;-76
2023/03/06 03:31:29;;;;;;;16.43;10.90;;;;;;;;;;5048359;28;20754;-75
2023/03/06 03:33:55;;;;;;;17.90;10.23;;;;;;;;;;5026135;28;20193;-75
2023/03/06 03:36:22;;;;;;;15.60;10.30;;;;;;;;;;5041987;28;20684;-76
2023/03/06 03:38:48;;;;;;;16.27;10.37;;;;;;;;;;5058858;28;20217;-76
2023/03/06 03:41:15;;;;;;;17.10;10.57;;;;;;;;;;5039302;28;20886;-76
2023/03/06 03:43:41;;;;;;;16.40;10.67;;;;;;;;;;5037431;28;20301;-76
2023/03/06 03:46:08;;;;;;;16.13;10.63;;;;;;;;;;5029067;28;20277;-76
2023/03/06 03:48:34;;;;;;;15.60;10.00;;;;;;;;;;5042346;28;20551;-76
2023/03/06 03:51:07;;;;;;;16.80;10.87;;;;;;;;;;5038824;28;20752;-75
2023/03/06 03:53:37;;;;;;;16.07;10.53;;;;;;;;;;5049150;28;20239;-75
2023/03/06 03:56:04;;;;;;;16.37;10.97;;;;;;;;;;5024988;28;20681;-75
2023/03/06 03:58:33;;;;;;;17.33;10.63;;;;;;;;;;5040181;28;20186;-75
2023/03/06 04:01:00;;;;;;;13.77;9.83;;;;;;;;;;5053230;28;20245;-75
2023/03/06 04:03:26;;;;;;;16.03;10.20;;;;;;;;;;5024753;28;20300;-75
2023/03/06 04:05:54;;;;;;;15.90;10.07;;;;;;;;;;5043423;28;20679;-75
2023/03/06 04:08:22;;;;;;;15.20;9.63;;;;;;;;;;5043273;28;20678;-75
2023/03/06 04:10:50;;;;;;;16.67;10.20;;;;;;;;;;5044136;28;20190;-75
2023/03/06 04:13:19;;;;;;;16.40;10.57;;;;;;;;;;5041449;28;20690;-76
2023/03/06 04:15:46;;;;;;;18.00;11.03;;;;;;;;;;5041592;28;21608;-75
2023/03/06 04:18:15;;;;;;;13.53;9.47;;;;;;;;;;5042786;28;20540;-75
2023/03/06 04:20:42;;;;;;;12.57;9.20;;;;;;;;;;5039602;28;20201;-75
2023/03/06 04:23:08;;;;;;;12.67;8.60;;;;;;;;;;5038987;28;20209;-76
2023/03/06 04:25:35;;;;;;;15.40;10.37;;;;;;;;;;5043139;28;20209;-75
2023/03/06 04:28:04;;;;;;;15.03;10.03;;;;;;;;;;5045762;28;20201;-75
2023/03/06 04:30:31;;;;;;;13.27;9.50;;;;;;;;;;5045602;28;20603;-75
2023/03/06 04:32:57;;;;;;;14.23;9.40;;;;;;;;;;5046520;28;20206;-76
2023/03/06 04:35:24;;;;;;;13.00;9.70;;;;;;;;;;5047001;28;20209;-75
2023/03/06 04:37:56;;;;;;;16.17;10.70;;;;;;;;;;5044523;28;20194;-76
2023/03/06 04:40:27;;;;;;;14.30;9.70;;;;;;;;;;5044356;28;20185;-76
2023/03/06 04:42:54;;;;;;;14.23;9.93;;;;;;;;;;5044996;28;20436;-76
2023/03/06 04:45:20;;;;;;;14.77;10.07;;;;;;;;;;5044377;28;20186;-75
2023/03/06 04:47:46;;;;;;;16.30;11.00;;;;;;;;;;5040663;28;20235;-75
2023/03/06 04:50:13;;;;;;;14.03;9.93;;;;;;;;;;5040798;28;20185;-75
2023/03/06 04:52:39;;;;;;;15.77;10.53;;;;;;;;;;5021723;28;20891;-75
2023/03/06 04:55:07;;;;;;;20.10;10.57;;;;;;;;;;5048818;28;20196;-75
2023/03/06 04:57:40;;;;;;;14.87;10.70;;;;;;;;;;5044215;28;20180;-76
2023/03/06 05:00:09;;;;;;;15.30;10.63;;;;;;;;;;5051240;28;20198;-75
2023/03/06 05:02:35;;;;;;;16.73;11.37;;;;;;;;;;5044255;28;20213;-76
2023/03/06 05:05:02;;;;;;;15.50;10.53;;;;;;;;;;5041453;28;20185;-75
2023/03/06 05:07:28;;;;;;;15.10;11.70;;;;;;;;;;5041101;28;20421;-75
2023/03/06 05:09:54;;;;;;;16.47;11.67;;;;;;;;;;5042509;28;20182;-76
2023/03/06 05:12:21;;;;;;;18.13;11.57;;;;;;;;;;5041630;28;20202;-75
2023/03/06 05:14:47;;;;;;;14.60;10.57;;;;;;;;;;5040162;28;20182;-75
2023/03/06 05:17:13;;;;;;;17.67;11.40;;;;;;;;;;5041006;28;20201;-75
2023/03/06 05:19:39;;;;;;;15.53;11.03;;;;;;;;;;5040933;28;20526;-76
2023/03/06 05:22:05;;;;;;;15.33;10.83;;;;;;;;;;5040570;28;20233;-76
2023/03/06 05:24:31;;;;;;;15.97;10.70;;;;;;;;;;5041347;28;20190;-75
2023/03/06 05:26:57;;;;;;;15.83;11.43;;;;;;;;;;5042513;28;20186;-75
2023/03/06 05:29:24;;;;;;;17.20;11.50;;;;;;;;;;5041267;28;20213;-75
2023/03/06 05:31:50;;;;;;;17.60;11.60;;;;;;;;;;5022049;28;20217;-75
2023/03/06 05:34:16;;;;;;;16.10;10.17;;;;;;;;;;5043917;28;20223;-76
2023/03/06 05:36:42;;;;;;;14.73;10.43;;;;;;;;;;5044834;28;20209;-75
2023/03/06 05:39:09;;;;;;;16.03;10.87;;;;;;;;;;5041772;28;20185;-75
2023/03/06 05:41:35;;;;;;;16.93;11.37;;;;;;;;;;5042555;28;20202;-75
2023/03/06 05:44:01;;;;;;;15.40;10.50;;;;;;;;;;5030181;28;20204;-75
2023/03/06 05:46:28;;;;;;;17.80;13.27;;;;;;;;;;5041483;28;20424;-76
2023/03/06 05:48:56;;;;;;;18.27;12.40;;;;;;;;;;5030001;28;20666;-75
2023/03/06 05:51:22;;;;;;;16.17;11.37;;;;;;;;;;5050480;28;20725;-75
2023/03/06 05:53:48;;;;;;;16.67;11.33;;;;;;;;;;5044944;28;20193;-76
2023/03/06 05:56:14;;;;;;;17.33;10.80;;;;;;;;;;5044339;28;20220;-77
2023/03/06 05:58:41;;;;;;;18.73;12.52;;;;;;;;;;5024135;28;21077;-76
2023/03/06 06:01:08;;;;;;;17.73;12.00;;;;;;;;;;5029225;28;20343;-75
2023/03/06 06:03:35;;;;;;;18.03;11.60;;;;;;;;;;5044154;28;20205;-74
2023/03/06 06:06:03;;;;;;;16.80;11.33;;;;;;;;;;5042729;28;20174;-76
2023/03/06 06:08:29;;;;;;;16.70;11.35;;;;;;;;;;5043741;28;22185;-75
2023/03/06 06:10:55;;;;;;;15.40;10.83;;;;;;;;;;5046298;28;20196;-74
2023/03/06 06:13:21;;;;;;;18.37;12.17;;;;;;;;;;5050484;28;20784;-74
2023/03/06 06:15:47;;;;;;;17.17;11.90;;;;;;;;;;5047143;28;20209;-75
2023/03/06 06:18:14;;;;;;;16.00;11.43;;;;;;;;;;5043533;28;20185;-75
2023/03/06 06:20:40;;;;;;;15.50;10.77;;;;;;;;;;5029548;28;20194;-79
2023/03/06 06:23:06;;;;;;;16.00;10.93;;;;;;;;;;5048305;28;20201;-79
2023/03/06 06:25:33;;;;;;;18.50;11.43;;;;;;;;;;5049032;28;20269;-76
2023/03/06 06:27:59;;;;;;;16.07;12.13;;;;;;;;;;5049614;28;20696;-77
2023/03/06 06:30:25;;;;;;;16.63;11.40;;;;;;;;;;5048393;28;20190;-76
2023/03/06 06:32:51;;;;;;;17.07;11.73;;;;;;;;;;5030991;28;20213;-76
2023/03/06 06:35:18;;;;;;;17.00;11.60;;;;;;;;;;5044154;28;20186;-77
2023/03/06 06:37:44;;;;;;;15.97;10.40;;;;;;;;;;5046277;28;20206;-77
2023/03/06 06:40:10;;;;;;;17.23;12.13;;;;;;;;;;5044643;28;20598;-77
2023/03/06 06:42:36;;;;;;;17.50;11.57;;;;;;;;;;5045312;28;20205;-76
2023/03/06 06:45:04;;;;;;;15.93;11.73;;;;;;;;;;5048186;28;20186;-77
2023/03/06 06:47:31;;;;;;;17.53;11.40;;;;;;;;;;5029446;28;20177;-76
2023/03/06 06:49:58;;;;;;;17.17;11.40;;;;;;;;;;5049633;28;20593;-80
2023/03/06 06:52:24;;;;;;;15.73;11.03;;;;;;;;;;5049598;28;20202;-75
2023/03/06 06:54:51;;;;;;;17.00;10.93;;;;;;;;;;5049373;28;20189;-76
2023/03/06 06:57:17;;;;;;;16.70;11.43;;;;;;;;;;5047735;28;20205;-76
2023/03/06 06:59:43;;;;;;;18.60;12.30;;;;;;;;;;5052718;28;20193;-77
2023/03/06 07:02:12;;;;;;;15.03;10.77;;;;;;;;;;5051186;28;20224;-76
2023/03/06 07:04:39;;;;;;;16.67;11.77;;;;;;;;;;5048641;28;20178;-80
2023/03/06 07:07:05;;;;;;;18.47;12.43;;;;;;;;;;5054499;28;20193;-78
2023/03/06 07:09:31;;;;;;;18.53;12.03;;;;;;;;;;5060315;28;20190;-75
2023/03/06 07:11:57;;;;;;;21.03;12.23;;;;;;;;;;5049658;28;20198;-76
2023/03/06 07:14:23;;;;;;;16.73;11.27;;;;;;;;;;5051145;28;20685;-76
2023/03/06 07:16:49;;;;;;;19.37;12.10;;;;;;;;;;5051465;28;20206;-74
2023/03/06 07:19:16;;;;;;;17.43;11.77;;;;;;;;;;5052701;28;20176;-74
2023/03/06 07:21:42;;;;;;;17.43;12.43;;;;;;;;;;5035547;28;20248;-74
2023/03/06 07:24:08;;;;;;;20.50;12.17;;;;;;;;;;5052425;28;20178;-77
2023/03/06 07:26:34;;;;;;;17.40;12.23;;;;;;;;;;5052517;28;20265;-77
2023/03/06 07:29:01;;;;;;;18.33;11.97;;;;;;;;;;5053197;28;20182;-77
2023/03/06 07:31:27;;;;;;;17.30;11.37;;;;;;;;;;5049629;28;20182;-77
2023/03/06 07:33:54;;;;;;;15.40;11.23;;;;;;;;;;5056249;28;20200;-77
2023/03/06 07:36:21;;;;;;;19.07;11.23;;;;;;;;;;5053492;28;20198;-77
2023/03/06 07:38:47;;;;;;;19.40;12.07;;;;;;;;;;5054144;28;20664;-78
2023/03/06 07:41:15;;;;;;;16.77;11.87;;;;;;;;;;5051790;28;20247;-79
2023/03/06 07:43:45;;;;;;;18.90;11.77;;;;;;;;;;5046258;28;20239;-76
2023/03/06 07:46:13;;;;;;;15.90;12.13;;;;;;;;;;5043963;28;20196;-77
2023/03/06 07:48:39;;;;;;;19.63;11.33;;;;;;;;;;5047935;28;20273;-77
2023/03/06 07:51:06;;;;;;;19.20;12.40;;;;;;;;;;5051496;28;20239;-76
2023/03/06 07:53:33;;;;;;;16.97;11.47;;;;;;;;;;5049964;28;20205;-77
2023/03/06 07:56:00;;;;;;;16.93;11.73;;;;;;;;;;5047663;28;20209;-77
2023/03/06 07:58:26;;;;;;;18.13;12.37;;;;;;;;;;5049134;28;20178;-76
2023/03/06 08:00:52;;;;;;;20.23;13.10;;;;;;;;;;5050099;28;20209;-76
2023/03/06 08:03:19;;;;;;;23.70;12.67;;;;;;;;;;5045490;28;20204;-77
2023/03/06 08:05:45;;;;;;;18.03;12.53;;;;;;;;;;5045074;28;20193;-77
2023/03/06 08:08:12;;;;;;;18.23;12.20;;;;;;;;;;5047851;28;20193;-77
2023/03/06 08:10:38;;;;;;;18.10;12.17;;;;;;;;;;5062789;28;20579;-77
2023/03/06 08:13:04;;;;;;;17.57;12.07;;;;;;;;;;5048451;28;20288;-77
2023/03/06 08:15:30;;;;;;;21.57;12.53;;;;;;;;;;5046458;28;20201;-77
2023/03/06 08:17:56;;;;;;;19.57;13.13;;;;;;;;;;5046209;28;20190;-77
2023/03/06 08:20:22;;;;;;;18.83;12.37;;;;;;;;;;5046705;28;21916;-76
2023/03/06 08:22:48;;;;;;;18.17;12.07;;;;;;;;;;5046880;28;20549;-77
2023/03/06 08:25:15;;;;;;;18.70;12.10;;;;;;;;;;5047296;28;20273;-77
2023/03/06 08:27:41;;;;;;;17.17;11.83;;;;;;;;;;5027768;28;20572;-77
2023/03/06 08:30:08;;;;;;;16.27;11.57;;;;;;;;;;5040992;28;20648;-77
2023/03/06 08:32:35;;;;;;;20.07;12.33;;;;;;;;;;5046893;28;20216;-77
2023/03/06 08:35:02;;;;;;;15.90;11.07;;;;;;;;;;5041783;28;20186;-77
2023/03/06 08:37:29;;;;;;;17.87;11.73;;;;;;;;;;5047545;28;20658;-77
2023/03/06 08:39:55;;;;;;;17.83;11.67;;;;;;;;;;5048224;28;20182;-77
2023/03/06 08:42:21;;;;;;;16.33;11.43;;;;;;;;;;5046753;28;20296;-77
2023/03/06 08:44:48;;;;;;;18.20;12.47;;;;;;;;;;5049170;28;20177;-76
2023/03/06 08:47:14;;;;;;;20.23;12.27;;;;;;;;;;5044965;28;20654;-76
2023/03/06 08:49:40;;;;;;;17.90;11.27;;;;;;;;;;5046222;28;20189;-77
2023/03/06 08:52:06;;;;;;;18.47;11.63;;;;;;;;;;5042974;28;20221;-76
2023/03/06 08:54:34;;;;;;;17.60;11.37;;;;;;;;;;5043342;28;20236;-76
2023/03/06 08:57:01;;;;;;;17.27;11.33;;;;;;;;;;5047932;28;20243;-75
2023/03/06 08:59:27;;;;;;;17.83;11.87;;;;;;;;;;5048011;28;20617;-77
2023/03/06 09:01:53;;;;;;;19.50;12.50;;;;;;;;;;5028807;28;20210;-76
2023/03/06 09:04:19;;;;;;;19.37;13.23;;;;;;;;;;5045202;28;20600;-77
2023/03/06 09:06:45;;;;;;;19.77;12.33;;;;;;;;;;5049721;28;20229;-76
2023/03/06 09:09:12;;;;;;;17.43;11.90;;;;;;;;;;5043404;28;20200;-77
2023/03/06 09:11:39;;;;;;;20.37;14.00;;;;;;;;;;5044334;28;20182;-76
2023/03/06 09:14:05;;;;;;;17.60;12.63;;;;;;;;;;5027683;28;20259;-77
2023/03/06 09:16:31;;;;;;;17.40;11.57;;;;;;;;;;5047417;28;20218;-74
2023/03/06 09:18:58;;;;;;;22.37;13.70;;;;;;;;;;5036277;28;20190;-75
2023/03/06 09:21:26;;;;;;;18.50;11.47;;;;;;;;;;5055116;28;20182;-75
2023/03/06 09:23:52;;;;;;;16.30;11.57;;;;;;;;;;5046090;28;20190;-75
2023/03/06 09:26:18;;;;;;;20.97;12.30;;;;;;;;;;5049122;28;20174;-75
2023/03/06 09:28:45;;;;;;;16.43;11.70;;;;;;;;;;5059866;28;20287;-75
2023/03/06 09:31:13;;;;;;;16.23;11.53;;;;;;;;;;5043949;28;20212;-75
2023/03/06 09:33:39;;;;;;;15.17;11.07;;;;;;;;;;5048288;28;20197;-76
2023/03/06 09:36:06;;;;;;;18.40;11.83;;;;;;;;;;5046792;28;20210;-75
2023/03/06 09:38:32;;;;;;;17.10;11.90;;;;;;;;;;5029078;28;20557;-75
2023/03/06 09:41:01;;;;;;;17.13;11.73;;;;;;;;;;5050470;28;20185;-75
2023/03/06 09:43:34;;;;;;;18.50;11.93;;;;;;;;;;5048597;28;20201;-75
2023/03/06 09:46:00;;;;;;;17.50;12.07;;;;;;;;;;5049305;28;20239;-75
2023/03/06 09:48:41;;;;;;;17.23;12.03;;;;;;;;;;5044940;28;20792;-75
2023/03/06 09:51:11;;;;;;;16.80;11.60;;;;;;;;;;5045935;28;20196;-75
2023/03/06 09:53:49;;;;;;;17.07;11.50;;;;;;;;;;5041477;28;20234;-75
2023/03/06 09:56:19;;;;;;;15.23;11.23;;;;;;;;;;5043393;28;20248;-75
2023/03/06 09:58:54;;;;;;;16.07;11.43;;;;;;;;;;5036240;28;20554;-75
2023/03/06 10:01:25;;;;;;;16.37;11.67;;;;;;;;;;5049043;28;20521;-75
2023/03/06 10:04:02;;;;;;;17.03;12.07;;;;;;;;;;5045709;28;20261;-76
2023/03/06 10:06:46;;;;;;;16.67;11.40;;;;;;;;;;5049821;28;20292;-75
2023/03/06 10:09:24;;;;;;;17.40;11.37;;;;;;;;;;5044661;28;20252;-75
2023/03/06 10:11:52;;;;;;;16.53;11.13;;;;;;;;;;5048757;28;21393;-75
2023/03/06 10:14:28;;;;;;;19.37;11.73;;;;;;;;;;5031423;28;20174;-76
2023/03/06 10:16:55;;;;;;;18.40;12.07;;;;;;;;;;5045050;28;20228;-75
2023/03/06 10:19:21;;;;;;;17.83;11.93;;;;;;;;;;5041038;28;20317;-74
2023/03/06 10:22:03;;;;;;;17.37;11.73;;;;;;;;;;5044901;28;20206;-79
2023/03/06 10:24:34;;;;;;;16.27;11.40;;;;;;;;;;5046771;28;20181;-77
2023/03/06 10:27:09;;;;;;;18.20;11.83;;;;;;;;;;5048777;28;20664;-76
2023/03/06 10:29:51;;;;;;;17.03;11.90;;;;;;;;;;5052533;28;20204;-76
2023/03/06 10:32:29;;;;;;;15.70;11.87;;;;;;;;;;5045303;28;20752;-76
2023/03/06 10:34:57;;;;;;;16.50;11.30;;;;;;;;;;5045106;28;20177;-76
2023/03/06 10:37:24;;;;;;;22.63;12.50;;;;;;;;;;5050715;28;20223;-76
2023/03/06 10:39:56;;;;;;;18.13;11.67;;;;;;;;;;5041148;28;20174;-76
2023/03/06 10:42:24;;;;;;;17.57;12.17;;;;;;;;;;5048026;28;20215;-76
2023/03/06 10:45:05;;;;;;;17.20;12.07;;;;;;;;;;5036866;28;20192;-76
2023/03/06 10:47:36;;;;;;;18.50;11.30;;;;;;;;;;5048794;28;20271;-76
2023/03/06 10:50:05;;;;;;;17.20;11.70;;;;;;;;;;5045339;28;20186;-76
2023/03/06 10:52:32;;;;;;;18.23;12.90;;;;;;;;;;5041769;28;20216;-74
2023/03/06 10:55:17;;;;;;;18.97;12.70;;;;;;;;;;5033486;28;20481;-74
2023/03/06 10:57:43;;;;;;;17.60;11.77;;;;;;;;;;5049489;28;20248;-74
2023/03/06 11:00:26;;;;;;;16.13;11.23;;;;;;;;;;5050268;28;20269;-74
2023/03/06 11:03:11;;;;;;;17.83;12.33;;;;;;;;;;5034465;28;20213;-74
2023/03/06 11:05:37;;;;;;;16.87;11.77;;;;;;;;;;5029523;28;20201;-74
2023/03/06 11:08:03;;;;;;;20.63;11.47;;;;;;;;;;5048387;28;20205;-74
2023/03/06 11:10:30;;;;;;;18.67;12.33;;;;;;;;;;5046251;28;20239;-75
2023/03/06 11:13:01;;;;;;;15.57;11.40;;;;;;;;;;5046804;28;20577;-74
2023/03/06 11:15:28;;;;;;;16.37;11.40;;;;;;;;;;5048224;28;20193;-74
2023/03/06 11:17:56;;;;;;;16.43;11.50;;;;;;;;;;5048828;28;20182;-77
2023/03/06 11:20:31;;;;;;;13.93;9.90;;;;;;;;;;5045817;28;20204;-76
2023/03/06 11:23:02;;;;;;;17.23;12.43;;;;;;;;;;5048096;28;20278;-76
2023/03/06 11:25:32;;;;;;;21.07;11.67;;;;;;;;;;5041350;28;20215;-76
2023/03/06 11:28:01;;;;;;;15.43;11.03;;;;;;;;;;5054562;28;20177;-76
2023/03/06 11:30:32;;;;;;;15.40;11.07;;;;;;;;;;5070239;28;20174;-77
2023/03/06 11:33:01;;;;;;;16.93;11.13;;;;;;;;;;5044780;28;20208;-76
2023/03/06 11:35:34;;;;;;;14.90;11.00;;;;;;;;;;5044065;28;20178;-76
2023/03/06 11:38:00;;;;;;;14.63;11.20;;;;;;;;;;5051713;28;20192;-76
2023/03/06 11:40:31;;;;;;;16.13;10.53;;;;;;;;;;5051067;28;20178;-76
2023/03/06 11:43:00;;;;;;;16.73;11.53;;;;;;;;;;5048752;28;20239;-76
2023/03/06 11:45:47;;;;;;;16.97;11.00;;;;;;;;;;5052157;28;20653;-76
2023/03/06 11:48:13;;;;;;;15.57;11.57;;;;;;;;;;5043685;28;20193;-76
2023/03/06 11:50:41;;;;;;;16.80;10.87;;;;;;;;;;5047731;28;20186;-76
2023/03/06 11:53:11;;;;;;;13.57;10.33;;;;;;;;;;5047120;28;20198;-76
2023/03/06 11:55:53;;;;;;;13.70;10.93;;;;;;;;;;5065467;28;20220;-76
2023/03/06 11:58:32;;;;;;;13.57;10.60;;;;;;;;;;5056193;28;20200;-76
2023/03/06 12:01:05;;;;;;;14.53;10.80;;;;;;;;;;5040591;28;20213;-76
2023/03/06 12:03:47;;;;;;;15.33;11.33;;;;;;;;;;5041690;28;20216;-76
2023/03/06 12:06:26;;;;;;;18.17;12.30;;;;;;;;;;5045139;28;20197;-76
2023/03/06 12:09:07;;;;;;;19.77;12.73;;;;;;;;;;5045214;28;20280;-76
2023/03/06 12:11:45;;;;;;;17.00;12.60;;;;;;;;;;5035142;28;20269;-76
2023/03/06 12:14:17;;;;;;;20.60;14.00;;;;;;;;;;5044659;28;20178;-76
2023/03/06 12:16:49;;;;;;;19.00;13.53;;;;;;;;;;5046643;28;20726;-76
2023/03/06 12:19:26;;;;;;;21.17;13.67;;;;;;;;;;5041596;28;20220;-76
2023/03/06 12:22:13;;;;;;;17.97;13.10;;;;;;;;;;5044378;28;20213;-76
2023/03/06 12:25:16;;;;;;;18.00;13.10;;;;;;;;;;5044010;28;20232;-76
2023/03/06 12:28:00;;;;;;;21.00;14.57;;;;;;;;;;5011805;28;20201;-76
2023/03/06 12:30:37;;;;;;;17.13;13.23;;;;;;;;;;5043224;28;20508;-76
2023/03/06 12:33:26;;;;;;;20.53;14.47;;;;;;;;;;5046956;28;20616;-76
2023/03/06 12:36:08;;;;;;;18.77;13.27;;;;;;;;;;5046635;28;20232;-76
2023/03/06 12:38:55;;;;;;;18.97;13.47;;;;;;;;;;5045617;28;20178;-76
2023/03/06 12:41:21;;;;;;;18.03;13.07;;;;;;;;;;5045864;28;20261;-76
2023/03/06 12:44:05;;;;;;;17.43;12.63;;;;;;;;;;5045445;28;20178;-76
2023/03/06 12:46:33;;;;;;;25.27;15.23;;;;;;;;;;5048235;28;20265;-76
2023/03/06 12:49:18;;;;;;;21.03;14.17;;;;;;;;;;5043596;28;20273;-76
2023/03/06 12:51:45;;;;;;;16.13;12.47;;;;;;;;;;5049594;28;20696;-76
2023/03/06 12:54:13;;;;;;;18.60;12.47;;;;;;;;;;5048618;28;20181;-76
2023/03/06 12:56:40;;;;;;;15.87;11.80;;;;;;;;;;5048922;28;20244;-76
2023/03/06 12:59:26;;;;;;;17.23;11.73;;;;;;;;;;5042818;28;20186;-76
2023/03/06 13:02:03;;;;;;;16.03;11.70;;;;;;;;;;5047592;28;20264;-76
2023/03/06 13:04:44;;;;;;;14.23;10.97;;;;;;;;;;5042397;28;20209;-76
2023/03/06 13:07:16;;;;;;;13.30;10.00;;;;;;;;;;5047957;28;20174;-76
2023/03/06 13:09:45;;;;;;;17.67;11.17;;;;;;;;;;5048795;28;20182;-76
2023/03/06 13:12:21;;;;;;;14.17;10.80;;;;;;;;;;5047902;28;20225;-76
2023/03/06 13:14:48;;;;;;;19.23;12.20;;;;;;;;;;5049955;28;20185;-76
2023/03/06 13:17:23;;;;;;;16.43;11.37;;;;;;;;;;5047644;28;20215;-76
2023/03/06 13:20:09;;;;;;;13.40;10.60;;;;;;;;;;5043541;28;20193;-76
2023/03/06 13:22:35;;;;;;;16.40;11.03;;;;;;;;;;5042427;28;20198;-76
2023/03/06 13:25:27;;;;;;;16.40;10.97;;;;;;;;;;5044586;28;20182;-77
2023/03/06 13:27:53;;;;;;;16.97;10.20;;;;;;;;;;5043696;28;20186;-76
2023/03/06 13:30:24;;;;;;;19.00;11.13;;;;;;;;;;5049707;28;20533;-76
2023/03/06 13:32:51;;;;;;;14.60;10.80;;;;;;;;;;5035962;28;20213;-76
2023/03/06 13:35:30;;;;;;;14.50;10.80;;;;;;;;;;5044179;28;20268;-76
2023/03/06 13:37:57;;;;;;;22.13;12.37;;;;;;;;;;5048304;28;20213;-76
2023/03/06 13:40:34;;;;;;;17.33;11.03;;;;;;;;;;5048788;28;20189;-76
2023/03/06 13:43:06;;;;;;;12.60;9.37;;;;;;;;;;5049165;28;20205;-76
2023/03/06 13:45:32;;;;;;;18.53;11.03;;;;;;;;;;5045457;28;20178;-76
2023/03/06 13:47:59;;;;;;;20.37;11.60;;;;;;;;;;5047932;28;20510;-76
2023/03/06 13:50:28;;;;;;;14.37;10.27;;;;;;;;;;5042807;28;20201;-76
2023/03/06 13:53:03;;;;;;;15.13;8.93;;;;;;;;;;5048702;28;20208;-76
2023/03/06 13:55:35;;;;;;;11.50;8.90;;;;;;;;;;5048191;28;20198;-75
2023/03/06 13:58:08;;;;;;;11.17;8.30;;;;;;;;;;5051779;28;20260;-75
2023/03/06 14:00:53;;;;;;;11.90;8.33;;;;;;;;;;5047577;28;20582;-76
2023/03/06 14:03:27;;;;;;;9.10;7.20;;;;;;;;;;5044606;28;20197;-75
2023/03/06 14:05:54;;;;;;;8.83;6.90;;;;;;;;;;5050838;28;20657;-76
2023/03/06 14:08:20;;;;;;;9.07;6.17;;;;;;;;;;5050114;28;20178;-76
2023/03/06 14:10:47;;;;;;;11.57;7.60;;;;;;;;;;5045321;28;20607;-75
2023/03/06 14:13:15;;;;;;;9.73;7.17;;;;;;;;;;5056600;28;20276;-75
2023/03/06 14:15:49;;;;;;;11.50;8.00;;;;;;;;;;5049685;28;20225;-76
2023/03/06 14:18:23;;;;;;;11.83;7.20;;;;;;;;;;5053042;28;20182;-77
2023/03/06 14:20:57;;;;;;;8.80;6.10;;;;;;;;;;5055633;28;20177;-77
2023/03/06 14:23:25;;;;;;;6.77;5.00;;;;;;;;;;5052532;28;20687;-77
2023/03/06 14:25:58;;;;;;;8.13;5.70;;;;;;;;;;5054817;28;20870;-77
2023/03/06 14:28:26;;;;;;;5.40;4.37;;;;;;;;;;5052322;28;20261;-74